sensor_id;sensor_type;location;lat;lon;timestamp;pressure;altitude;pressure_sealevel;temperature;humidity
24788;BME280;12883;52.662;5.196;2023-03-18T00:00:26;100761.34;;;11.50;100.00
24788;BME280;12883;52.662;5.196;2023-03-18T00:02:52;100759.47;;;11.50;100.00
24788;BME280;12883;52.662;5.196;2023-03-18T00:05:18;100735.38;;;11.39;100.00
24788;BME280;12883;52.662;5.196;2023-03-18T00:07:44;100754.19;;;11.44;100.00
24788;BME280;12883;52.662;5.196;2023-03-18T00:10:11;100765.44;;;11.39;100.00
24788;BME280;12883;52.662;5.196;2023-03-18T00:12:38;100774.22;;;11.40;100.00
24788;BME280;12883;52.662;5.196;2023-03-18T00:15:09;100737.88;;;11.08;100.00
24788;BME280;12883;52.662;5.196;2023-03-18T00:17:35;100765.44;;;11.26;100.00
24788;BME280;12883;52.662;5.196;2023-03-18T00:20:03;100762.75;;;11.33;100.00
24788;BME280;12883;52.662;5.196;2023-03-18T00:22:32;100764.00;;;11.24;100.00
24788;BME280;12883;52.662;5.196;2023-03-18T00:24:57;100768.50;;;11.17;100.00
24788;BME280;12883;52.662;5.196;2023-03-18T00:27:23;100768.50;;;11.10;100.00
24788;BME280;12883;52.662;5.196;2023-03-18T00:29:49;100764.63;;;11.13;100.00
24788;BME280;12883;52.662;5.196;2023-03-18T00:32:16;100772.97;;;10.97;100.00
24788;BME280;12883;52.662;5.196;2023-03-18T00:34:41;100766.63;;;10.98;100.00
24788;BME280;12883;52.662;5.196;2023-03-18T00:37:06;100762.78;;;10.94;100.00
24788;BME280;12883;52.662;5.196;2023-03-18T00:39:32;100769.28;;;10.85;100.00
24788;BME280;12883;52.662;5.196;2023-03-18T00:41:59;100750.84;;;10.64;100.00
24788;BME280;12883;52.662;5.196;2023-03-18T00:44:32;100780.31;;;10.82;100.00
24788;BME280;12883;52.662;5.196;2023-03-18T00:46:57;100778.88;;;10.79;100.00
24788;BME280;12883;52.662;5.196;2023-03-18T00:49:22;100779.91;;;10.78;100.00
24788;BME280;12883;52.662;5.196;2023-03-18T00:51:48;100778.25;;;10.77;100.00
24788;BME280;12883;52.662;5.196;2023-03-18T00:54:13;100774.59;;;10.78;100.00
24788;BME280;12883;52.662;5.196;2023-03-18T00:56:42;100778.66;;;10.74;100.00
24788;BME280;12883;52.662;5.196;2023-03-18T00:59:07;100782.53;;;10.78;100.00
24788;BME280;12883;52.662;5.196;2023-03-18T01:01:33;100778.66;;;10.68;100.00
24788;BME280;12883;52.662;5.196;2023-03-18T01:03:59;100767.38;;;10.53;100.00
24788;BME280;12883;52.662;5.196;2023-03-18T01:06:27;100778.44;;;10.69;100.00
24788;BME280;12883;52.662;5.196;2023-03-18T01:08:54;100775.38;;;10.66;100.00
24788;BME280;12883;52.662;5.196;2023-03-18T01:11:23;100774.75;;;10.64;100.00
24788;BME280;12883;52.662;5.196;2023-03-18T01:13:49;100772.50;;;10.61;100.00
24788;BME280;12883;52.662;5.196;2023-03-18T01:16:15;100770.88;;;10.60;100.00
24788;BME280;12883;52.662;5.196;2023-03-18T01:18:41;100745.88;;;10.35;100.00
24788;BME280;12883;52.662;5.196;2023-03-18T01:21:08;100778.97;;;10.45;100.00
24788;BME280;12883;52.662;5.196;2023-03-18T01:23:35;100770.22;;;10.45;100.00
24788;BME280;12883;52.662;5.196;2023-03-18T01:26:02;100784.69;;;10.49;100.00
24788;BME280;12883;52.662;5.196;2023-03-18T01:28:27;100779.56;;;10.41;100.00
24788;BME280;12883;52.662;5.196;2023-03-18T01:30:53;100719.63;;;9.99;100.00
24788;BME280;12883;52.662;5.196;2023-03-18T01:33:19;100782.59;;;10.25;100.00
24788;BME280;12883;52.662;5.196;2023-03-18T01:35:45;100779.94;;;10.25;100.00
24788;BME280;12883;52.662;5.196;2023-03-18T01:38:13;100783.97;;;10.21;100.00
24788;BME280;12883;52.662;5.196;2023-03-18T01:40:39;100782.13;;;10.15;100.00
24788;BME280;12883;52.662;5.196;2023-03-18T01:43:14;100771.63;;;10.00;100.00
24788;BME280;12883;52.662;5.196;2023-03-18T01:45:47;100775.50;;;9.98;100.00
24788;BME280;12883;52.662;5.196;2023-03-18T01:48:17;100769.72;;;9.88;100.00
24788;BME280;12883;52.662;5.196;2023-03-18T01:50:48;100777.81;;;9.80;100.00
24788;BME280;12883;52.662;5.196;2023-03-18T01:53:16;100774.56;;;9.78;100.00
24788;BME280;12883;52.662;5.196;2023-03-18T01:55:44;100777.22;;;9.84;100.00
24788;BME280;12883;52.662;5.196;2023-03-18T01:58:19;100778.41;;;9.75;100.00
24788;BME280;12883;52.662;5.196;2023-03-18T02:00:51;100761.91;;;9.80;100.00
24788;BME280;12883;52.662;5.196;2023-03-18T02:03:19;100778.22;;;9.77;100.00
24788;BME280;12883;52.662;5.196;2023-03-18T02:05:47;100773.69;;;9.71;100.00
24788;BME280;12883;52.662;5.196;2023-03-18T02:08:14;100780.69;;;9.78;100.00
24788;BME280;12883;52.662;5.196;2023-03-18T02:10:39;100767.63;;;9.77;100.00
24788;BME280;12883;52.662;5.196;2023-03-18T02:13:09;100767.44;;;9.78;100.00
24788;BME280;12883;52.662;5.196;2023-03-18T02:15:39;100768.81;;;9.74;100.00
24788;BME280;12883;52.662;5.196;2023-03-18T02:18:12;100768.81;;;9.74;100.00
24788;BME280;12883;52.662;5.196;2023-03-18T02:26:02;100761.78;;;9.54;100.00
24788;BME280;12883;52.662;5.196;2023-03-18T02:28:32;100763.56;;;9.47;100.00
24788;BME280;12883;52.662;5.196;2023-03-18T02:31:03;100770.69;;;9.47;100.00
24788;BME280;12883;52.662;5.196;2023-03-18T02:33:34;100771.44;;;9.41;100.00
24788;BME280;12883;52.662;5.196;2023-03-18T02:36:28;100766.72;;;9.36;100.00
24788;BME280;12883;52.662;5.196;2023-03-18T02:38:55;100773.50;;;9.45;100.00
24788;BME280;12883;52.662;5.196;2023-03-18T02:41:23;100776.91;;;9.39;100.00
24788;BME280;12883;52.662;5.196;2023-03-18T02:43:49;100771.00;;;9.37;100.00
24788;BME280;12883;52.662;5.196;2023-03-18T02:48:47;100789.63;;;9.44;100.00
24788;BME280;12883;52.662;5.196;2023-03-18T02:51:15;100795.34;;;9.47;100.00
24788;BME280;12883;52.662;5.196;2023-03-18T02:53:42;100804.06;;;9.41;100.00
24788;BME280;12883;52.662;5.196;2023-03-18T02:56:08;100810.59;;;9.45;100.00
24788;BME280;12883;52.662;5.196;2023-03-18T02:58:34;100767.19;;;9.19;100.00
24788;BME280;12883;52.662;5.196;2023-03-18T03:01:01;100806.94;;;9.25;100.00
24788;BME280;12883;52.662;5.196;2023-03-18T03:03:27;100805.88;;;9.20;100.00
24788;BME280;12883;52.662;5.196;2023-03-18T03:05:54;100788.38;;;9.19;100.00
24788;BME280;12883;52.662;5.196;2023-03-18T03:08:20;100780.88;;;9.01;100.00
24788;BME280;12883;52.662;5.196;2023-03-18T03:10:46;100807.66;;;9.13;100.00
24788;BME280;12883;52.662;5.196;2023-03-18T03:13:12;100791.47;;;9.01;100.00
24788;BME280;12883;52.662;5.196;2023-03-18T03:15:38;100811.63;;;9.02;100.00
24788;BME280;12883;52.662;5.196;2023-03-18T03:18:04;100807.84;;;9.11;100.00
24788;BME280;12883;52.662;5.196;2023-03-18T03:20:31;100822.53;;;9.14;100.00
24788;BME280;12883;52.662;5.196;2023-03-18T03:23:00;100820.19;;;9.25;100.00
24788;BME280;12883;52.662;5.196;2023-03-18T03:25:27;100822.47;;;9.28;100.00
24788;BME280;12883;52.662;5.196;2023-03-18T03:27:52;100820.06;;;9.33;100.00
24788;BME280;12883;52.662;5.196;2023-03-18T03:30:19;100819.81;;;9.28;100.00
24788;BME280;12883;52.662;5.196;2023-03-18T03:32:45;100800.16;;;9.16;100.00
24788;BME280;12883;52.662;5.196;2023-03-18T03:35:15;100820.69;;;9.35;100.00
24788;BME280;12883;52.662;5.196;2023-03-18T03:37:42;100825.03;;;9.43;100.00
24788;BME280;12883;52.662;5.196;2023-03-18T03:40:12;100823.97;;;9.37;100.00
24788;BME280;12883;52.662;5.196;2023-03-18T03:42:39;100823.47;;;9.48;100.00
24788;BME280;12883;52.662;5.196;2023-03-18T03:45:05;100826.84;;;9.63;100.00
24788;BME280;12883;52.662;5.196;2023-03-18T03:47:32;100795.66;;;9.38;100.00
24788;BME280;12883;52.662;5.196;2023-03-18T03:49:57;100817.03;;;9.63;100.00
24788;BME280;12883;52.662;5.196;2023-03-18T03:52:23;100820.28;;;9.59;100.00
24788;BME280;12883;52.662;5.196;2023-03-18T03:54:49;100823.69;;;9.53;100.00
24788;BME280;12883;52.662;5.196;2023-03-18T03:57:15;100825.56;;;9.59;100.00
24788;BME280;12883;52.662;5.196;2023-03-18T03:59:41;100793.47;;;9.41;100.00
24788;BME280;12883;52.662;5.196;2023-03-18T04:02:07;100827.41;;;9.58;100.00
24788;BME280;12883;52.662;5.196;2023-03-18T04:04:33;100811.41;;;9.46;100.00
24788;BME280;12883;52.662;5.196;2023-03-18T04:06:58;100828.63;;;9.56;100.00
24788;BME280;12883;52.662;5.196;2023-03-18T04:09:24;100819.19;;;9.47;100.00
24788;BME280;12883;52.662;5.196;2023-03-18T04:11:49;100825.06;;;9.70;100.00
24788;BME280;12883;52.662;5.196;2023-03-18T04:14:15;100834.88;;;9.76;100.00
24788;BME280;12883;52.662;5.196;2023-03-18T04:16:40;100828.81;;;9.82;100.00
24788;BME280;12883;52.662;5.196;2023-03-18T04:19:06;100834.81;;;9.69;100.00
24788;BME280;12883;52.662;5.196;2023-03-18T04:21:32;100834.44;;;9.72;100.00
24788;BME280;12883;52.662;5.196;2023-03-18T04:23:57;100829.00;;;9.80;100.00
24788;BME280;12883;52.662;5.196;2023-03-18T04:26:23;100837.75;;;9.81;100.00
24788;BME280;12883;52.662;5.196;2023-03-18T04:28:48;100831.47;;;9.82;100.00
24788;BME280;12883;52.662;5.196;2023-03-18T04:31:14;100838.63;;;9.88;100.00
24788;BME280;12883;52.662;5.196;2023-03-18T04:33:39;100840.31;;;9.95;100.00
24788;BME280;12883;52.662;5.196;2023-03-18T04:36:05;100816.34;;;9.76;100.00
24788;BME280;12883;52.662;5.196;2023-03-18T04:38:31;100840.50;;;9.94;100.00
24788;BME280;12883;52.662;5.196;2023-03-18T04:40:57;100845.16;;;9.85;100.00
24788;BME280;12883;52.662;5.196;2023-03-18T04:43:22;100838.00;;;9.86;100.00
24788;BME280;12883;52.662;5.196;2023-03-18T04:45:48;100833.31;;;9.88;100.00
24788;BME280;12883;52.662;5.196;2023-03-18T04:48:13;100843.53;;;9.91;100.00
24788;BME280;12883;52.662;5.196;2023-03-18T04:50:39;100833.47;;;9.80;100.00
24788;BME280;12883;52.662;5.196;2023-03-18T04:53:04;100844.94;;;9.87;100.00
24788;BME280;12883;52.662;5.196;2023-03-18T04:55:30;100832.09;;;9.90;100.00
24788;BME280;12883;52.662;5.196;2023-03-18T04:57:55;100840.88;;;9.91;100.00
24788;BME280;12883;52.662;5.196;2023-03-18T05:00:21;100842.94;;;9.95;100.00
24788;BME280;12883;52.662;5.196;2023-03-18T05:02:47;100850.19;;;10.08;100.00
24788;BME280;12883;52.662;5.196;2023-03-18T05:05:13;100846.94;;;10.12;100.00
24788;BME280;12883;52.662;5.196;2023-03-18T05:07:39;100851.94;;;10.01;100.00
24788;BME280;12883;52.662;5.196;2023-03-18T05:10:05;100838.56;;;10.09;100.00
24788;BME280;12883;52.662;5.196;2023-03-18T05:12:32;100855.13;;;10.11;100.00
24788;BME280;12883;52.662;5.196;2023-03-18T05:14:57;100854.13;;;10.18;100.00
24788;BME280;12883;52.662;5.196;2023-03-18T05:17:22;100863.69;;;10.13;100.00
24788;BME280;12883;52.662;5.196;2023-03-18T05:19:48;100838.28;;;9.97;100.00
24788;BME280;12883;52.662;5.196;2023-03-18T05:22:16;100863.69;;;10.13;100.00
24788;BME280;12883;52.662;5.196;2023-03-18T05:24:42;100864.09;;;10.10;100.00
24788;BME280;12883;52.662;5.196;2023-03-18T05:27:10;100863.09;;;10.17;100.00
24788;BME280;12883;52.662;5.196;2023-03-18T05:29:37;100871.72;;;10.26;100.00
24788;BME280;12883;52.662;5.196;2023-03-18T05:32:05;100884.41;;;10.30;100.00
24788;BME280;12883;52.662;5.196;2023-03-18T05:34:32;100873.19;;;10.28;100.00
24788;BME280;12883;52.662;5.196;2023-03-18T05:36:57;100882.56;;;10.31;100.00
24788;BME280;12883;52.662;5.196;2023-03-18T05:39:23;100883.19;;;10.33;100.00
24788;BME280;12883;52.662;5.196;2023-03-18T05:41:48;100888.75;;;10.38;100.00
24788;BME280;12883;52.662;5.196;2023-03-18T05:44:14;100888.75;;;10.44;100.00
24788;BME280;12883;52.662;5.196;2023-03-18T05:46:39;100891.59;;;10.43;100.00
24788;BME280;12883;52.662;5.196;2023-03-18T05:49:04;100896.53;;;10.46;100.00
24788;BME280;12883;52.662;5.196;2023-03-18T05:51:30;100895.94;;;10.50;100.00
24788;BME280;12883;52.662;5.196;2023-03-18T05:53:56;100903.91;;;10.50;100.00
24788;BME280;12883;52.662;5.196;2023-03-18T05:56:21;100897.38;;;10.53;100.00
24788;BME280;12883;52.662;5.196;2023-03-18T05:58:49;100895.50;;;10.47;100.00
24788;BME280;12883;52.662;5.196;2023-03-18T06:01:14;100899.19;;;10.52;100.00
24788;BME280;12883;52.662;5.196;2023-03-18T06:03:39;100907.81;;;10.54;100.00
24788;BME280;12883;52.662;5.196;2023-03-18T06:06:05;100912.69;;;10.51;100.00
24788;BME280;12883;52.662;5.196;2023-03-18T06:08:30;100910.47;;;10.54;100.00
24788;BME280;12883;52.662;5.196;2023-03-18T06:10:55;100912.13;;;10.62;100.00
24788;BME280;12883;52.662;5.196;2023-03-18T06:13:21;100903.53;;;10.60;100.00
24788;BME280;12883;52.662;5.196;2023-03-18T06:15:46;100920.66;;;10.57;100.00
24788;BME280;12883;52.662;5.196;2023-03-18T06:18:12;100874.63;;;10.31;100.00
24788;BME280;12883;52.662;5.196;2023-03-18T06:20:38;100922.72;;;10.62;100.00
24788;BME280;12883;52.662;5.196;2023-03-18T06:23:03;100920.84;;;10.56;100.00
24788;BME280;12883;52.662;5.196;2023-03-18T06:25:30;100917.19;;;10.57;100.00
24788;BME280;12883;52.662;5.196;2023-03-18T06:27:55;100922.78;;;10.75;100.00
24788;BME280;12883;52.662;5.196;2023-03-18T06:30:20;100933.44;;;10.81;100.00
24788;BME280;12883;52.662;5.196;2023-03-18T06:32:46;100928.97;;;10.88;100.00
24788;BME280;12883;52.662;5.196;2023-03-18T06:35:12;100921.22;;;10.93;100.00
24788;BME280;12883;52.662;5.196;2023-03-18T06:37:39;100922.06;;;11.00;100.00
24788;BME280;12883;52.662;5.196;2023-03-18T06:40:05;100872.78;;;10.78;100.00
24788;BME280;12883;52.662;5.196;2023-03-18T06:42:31;100911.69;;;11.12;100.00
24788;BME280;12883;52.662;5.196;2023-03-18T06:44:57;100914.56;;;11.10;100.00
24788;BME280;12883;52.662;5.196;2023-03-18T06:47:22;100916.38;;;11.10;100.00
24788;BME280;12883;52.662;5.196;2023-03-18T06:49:48;100919.28;;;11.15;100.00
24788;BME280;12883;52.662;5.196;2023-03-18T06:52:15;100922.97;;;11.20;100.00
24788;BME280;12883;52.662;5.196;2023-03-18T06:54:41;100925.75;;;11.06;100.00
24788;BME280;12883;52.662;5.196;2023-03-18T06:57:07;100927.00;;;11.10;100.00
24788;BME280;12883;52.662;5.196;2023-03-18T06:59:33;100924.78;;;11.07;100.00
24788;BME280;12883;52.662;5.196;2023-03-18T07:01:58;100921.09;;;11.08;100.00
24788;BME280;12883;52.662;5.196;2023-03-18T07:04:23;100929.47;;;11.11;100.00
24788;BME280;12883;52.662;5.196;2023-03-18T07:06:50;100937.63;;;11.10;100.00
24788;BME280;12883;52.662;5.196;2023-03-18T07:09:15;100937.25;;;11.13;100.00
24788;BME280;12883;52.662;5.196;2023-03-18T07:11:41;100950.31;;;11.14;100.00
24788;BME280;12883;52.662;5.196;2023-03-18T07:14:06;100963.38;;;11.09;100.00
24788;BME280;12883;52.662;5.196;2023-03-18T07:16:32;100961.97;;;11.13;100.00
24788;BME280;12883;52.662;5.196;2023-03-18T07:18:57;100962.94;;;11.06;100.00
24788;BME280;12883;52.662;5.196;2023-03-18T07:21:24;100956.81;;;11.05;100.00
24788;BME280;12883;52.662;5.196;2023-03-18T07:23:49;100948.84;;;11.05;100.00
24788;BME280;12883;52.662;5.196;2023-03-18T07:26:16;100959.66;;;11.04;100.00
24788;BME280;12883;52.662;5.196;2023-03-18T07:28:42;100950.69;;;11.05;100.00
24788;BME280;12883;52.662;5.196;2023-03-18T07:31:07;100939.91;;;11.13;100.00
24788;BME280;12883;52.662;5.196;2023-03-18T07:33:32;100943.59;;;11.18;100.00
24788;BME280;12883;52.662;5.196;2023-03-18T07:35:58;100947.88;;;11.26;100.00
24788;BME280;12883;52.662;5.196;2023-03-18T07:38:24;100961.00;;;11.34;100.00
24788;BME280;12883;52.662;5.196;2023-03-18T07:40:49;100956.91;;;11.38;100.00
24788;BME280;12883;52.662;5.196;2023-03-18T07:43:15;100969.81;;;11.41;100.00
24788;BME280;12883;52.662;5.196;2023-03-18T07:45:41;100970.84;;;11.46;100.00
24788;BME280;12883;52.662;5.196;2023-03-18T07:48:07;100970.66;;;11.48;100.00
24788;BME280;12883;52.662;5.196;2023-03-18T07:50:32;100976.16;;;11.53;100.00
24788;BME280;12883;52.662;5.196;2023-03-18T07:52:58;100975.16;;;11.54;100.00
24788;BME280;12883;52.662;5.196;2023-03-18T07:55:23;100980.06;;;11.57;100.00
24788;BME280;12883;52.662;5.196;2023-03-18T07:57:49;100973.50;;;11.53;100.00
24788;BME280;12883;52.662;5.196;2023-03-18T08:00:15;100994.03;;;11.65;100.00
24788;BME280;12883;52.662;5.196;2023-03-18T08:02:41;100998.72;;;11.63;100.00
24788;BME280;12883;52.662;5.196;2023-03-18T08:05:07;100979.84;;;11.52;100.00
24788;BME280;12883;52.662;5.196;2023-03-18T08:07:33;100995.06;;;11.71;100.00
24788;BME280;12883;52.662;5.196;2023-03-18T08:09:59;100989.53;;;11.72;100.00
24788;BME280;12883;52.662;5.196;2023-03-18T08:12:24;100992.63;;;11.76;100.00
24788;BME280;12883;52.662;5.196;2023-03-18T08:14:50;100995.06;;;11.77;100.00
24788;BME280;12883;52.662;5.196;2023-03-18T08:17:16;101002.84;;;11.79;100.00
24788;BME280;12883;52.662;5.196;2023-03-18T08:19:42;100970.25;;;11.57;100.00
24788;BME280;12883;52.662;5.196;2023-03-18T08:22:07;101009.19;;;11.84;100.00
24788;BME280;12883;52.662;5.196;2023-03-18T08:24:34;101005.53;;;11.92;100.00
24788;BME280;12883;52.662;5.196;2023-03-18T08:27:01;101004.50;;;11.93;100.00
24788;BME280;12883;52.662;5.196;2023-03-18T08:29:26;101000.84;;;12.00;100.00
24788;BME280;12883;52.662;5.196;2023-03-18T08:31:52;101009.41;;;12.09;100.00
24788;BME280;12883;52.662;5.196;2023-03-18T08:34:18;101009.22;;;12.17;100.00
24788;BME280;12883;52.662;5.196;2023-03-18T08:36:43;101000.81;;;12.20;100.00
24788;BME280;12883;52.662;5.196;2023-03-18T08:39:09;100994.06;;;12.30;100.00
24788;BME280;12883;52.662;5.196;2023-03-18T08:41:35;101003.28;;;12.28;100.00
24788;BME280;12883;52.662;5.196;2023-03-18T08:44:02;101000.19;;;12.37;100.00
24788;BME280;12883;52.662;5.196;2023-03-18T08:46:27;101003.28;;;12.41;100.00
24788;BME280;12883;52.662;5.196;2023-03-18T08:48:53;101003.25;;;12.47;100.00
24788;BME280;12883;52.662;5.196;2023-03-18T08:51:19;100982.59;;;12.43;100.00
24788;BME280;12883;52.662;5.196;2023-03-18T08:53:46;101007.13;;;12.58;100.00
24788;BME280;12883;52.662;5.196;2023-03-18T08:56:11;101009.78;;;12.64;100.00
24788;BME280;12883;52.662;5.196;2023-03-18T08:58:39;101009.38;;;12.67;100.00
24788;BME280;12883;52.662;5.196;2023-03-18T09:01:04;101011.84;;;12.69;100.00
24788;BME280;12883;52.662;5.196;2023-03-18T09:03:30;100986.06;;;12.56;100.00
24788;BME280;12883;52.662;5.196;2023-03-18T09:05:56;100999.94;;;12.65;100.00
24788;BME280;12883;52.662;5.196;2023-03-18T09:08:21;101012.25;;;12.79;100.00
24788;BME280;12883;52.662;5.196;2023-03-18T09:10:50;101017.09;;;12.88;100.00
24788;BME280;12883;52.662;5.196;2023-03-18T09:13:16;101025.94;;;12.89;100.00
24788;BME280;12883;52.662;5.196;2023-03-18T09:15:41;101024.28;;;13.01;100.00
24788;BME280;12883;52.662;5.196;2023-03-18T09:18:07;101033.91;;;12.89;100.00
24788;BME280;12883;52.662;5.196;2023-03-18T09:20:33;101029.41;;;12.96;100.00
24788;BME280;12883;52.662;5.196;2023-03-18T09:22:59;101014.66;;;12.87;100.00
24788;BME280;12883;52.662;5.196;2023-03-18T09:25:25;101019.16;;;12.99;100.00
24788;BME280;12883;52.662;5.196;2023-03-18T09:27:51;101019.09;;;13.19;100.00
24788;BME280;12883;52.662;5.196;2023-03-18T09:30:17;101021.78;;;13.06;100.00
24788;BME280;12883;52.662;5.196;2023-03-18T09:32:42;101013.34;;;13.22;100.00
24788;BME280;12883;52.662;5.196;2023-03-18T09:35:09;100999.75;;;13.36;100.00
24788;BME280;12883;52.662;5.196;2023-03-18T09:37:35;100996.94;;;13.25;100.00
24788;BME280;12883;52.662;5.196;2023-03-18T09:40:01;100993.88;;;13.21;100.00
24788;BME280;12883;52.662;5.196;2023-03-18T09:44:59;101016.97;;;13.40;100.00
24788;BME280;12883;52.662;5.196;2023-03-18T09:52:31;100997.31;;;13.28;100.00
24788;BME280;12883;52.662;5.196;2023-03-18T09:55:17;101025.16;;;13.45;100.00
24788;BME280;12883;52.662;5.196;2023-03-18T09:57:47;101023.88;;;13.48;100.00
24788;BME280;12883;52.662;5.196;2023-03-18T10:00:28;101030.88;;;13.49;100.00
24788;BME280;12883;52.662;5.196;2023-03-18T10:03:09;101018.72;;;13.53;100.00
24788;BME280;12883;52.662;5.196;2023-03-18T10:05:45;101037.78;;;13.63;100.00
24788;BME280;12883;52.662;5.196;2023-03-18T10:08:18;101033.44;;;13.62;100.00
24788;BME280;12883;52.662;5.196;2023-03-18T10:10:47;101044.72;;;13.64;100.00
24788;BME280;12883;52.662;5.196;2023-03-18T10:13:27;101044.72;;;13.64;100.00
24788;BME280;12883;52.662;5.196;2023-03-18T10:15:56;101047.94;;;13.79;100.00
24788;BME280;12883;52.662;5.196;2023-03-18T10:18:43;101050.94;;;13.89;100.00
24788;BME280;12883;52.662;5.196;2023-03-18T10:21:55;101056.13;;;13.84;100.00
24788;BME280;12883;52.662;5.196;2023-03-18T10:24:36;101049.38;;;13.75;100.00
24788;BME280;12883;52.662;5.196;2023-03-18T10:27:23;101059.81;;;13.83;100.00
24788;BME280;12883;52.662;5.196;2023-03-18T10:32:52;101055.34;;;14.08;100.00
24788;BME280;12883;52.662;5.196;2023-03-18T10:35:36;101062.94;;;14.11;100.00
24788;BME280;12883;52.662;5.196;2023-03-18T10:38:43;101058.00;;;14.08;100.00
24788;BME280;12883;52.662;5.196;2023-03-18T10:41:13;101058.44;;;14.05;100.00
24788;BME280;12883;52.662;5.196;2023-03-18T10:43:39;101060.88;;;14.06;100.00
24788;BME280;12883;52.662;5.196;2023-03-18T10:46:05;101062.88;;;14.17;100.00
24788;BME280;12883;52.662;5.196;2023-03-18T10:48:40;101061.22;;;14.23;100.00
24788;BME280;12883;52.662;5.196;2023-03-18T10:51:45;101065.31;;;14.25;100.00
24788;BME280;12883;52.662;5.196;2023-03-18T10:54:30;101069.31;;;14.34;100.00
24788;BME280;12883;52.662;5.196;2023-03-18T10:56:57;101058.72;;;14.28;100.00
24788;BME280;12883;52.662;5.196;2023-03-18T10:59:24;101078.72;;;14.43;100.00
24788;BME280;12883;52.662;5.196;2023-03-18T11:01:56;101062.03;;;14.48;100.00
24788;BME280;12883;52.662;5.196;2023-03-18T11:04:23;101057.13;;;14.45;100.00
24788;BME280;12883;52.662;5.196;2023-03-18T11:06:51;101044.03;;;14.61;100.00
24788;BME280;12883;52.662;5.196;2023-03-18T11:09:21;101044.75;;;14.75;100.00
24788;BME280;12883;52.662;5.196;2023-03-18T11:11:55;101043.50;;;14.77;100.00
24788;BME280;12883;52.662;5.196;2023-03-18T11:14:27;101046.69;;;14.85;100.00
24788;BME280;12883;52.662;5.196;2023-03-18T11:22:23;101030.97;;;14.95;100.00
24788;BME280;12883;52.662;5.196;2023-03-18T11:25:15;101031.38;;;14.92;100.00
24788;BME280;12883;52.662;5.196;2023-03-18T11:27:42;101037.44;;;15.06;100.00
24788;BME280;12883;52.662;5.196;2023-03-18T11:32:36;101040.63;;;15.14;100.00
24788;BME280;12883;52.662;5.196;2023-03-18T11:35:03;101055.94;;;15.07;100.00
24788;BME280;12883;52.662;5.196;2023-03-18T11:40:17;101052.28;;;15.20;100.00
24788;BME280;12883;52.662;5.196;2023-03-18T11:42:45;101058.16;;;15.28;100.00
24788;BME280;12883;52.662;5.196;2023-03-18T11:48:20;101056.22;;;15.17;100.00
24788;BME280;12883;52.662;5.196;2023-03-18T11:51:01;101068.09;;;15.21;100.00
24788;BME280;12883;52.662;5.196;2023-03-18T11:56:54;101048.72;;;15.26;100.00
24788;BME280;12883;52.662;5.196;2023-03-18T12:07:40;101042.94;;;15.47;100.00
24788;BME280;12883;52.662;5.196;2023-03-18T12:10:39;101057.84;;;15.54;100.00
24788;BME280;12883;52.662;5.196;2023-03-18T12:21:34;101054.44;;;15.47;100.00
24788;BME280;12883;52.662;5.196;2023-03-18T12:27:01;101056.56;;;15.57;100.00
24788;BME280;12883;52.662;5.196;2023-03-18T12:29:46;101061.81;;;15.52;100.00
24788;BME280;12883;52.662;5.196;2023-03-18T12:32:41;101059.34;;;15.50;100.00
24788;BME280;12883;52.662;5.196;2023-03-18T12:35:17;101054.69;;;15.46;100.00
24788;BME280;12883;52.662;5.196;2023-03-18T12:46:51;101051.03;;;15.40;100.00
24788;BME280;12883;52.662;5.196;2023-03-18T12:49:23;101048.44;;;15.52;100.00
24788;BME280;12883;52.662;5.196;2023-03-18T12:52:03;101056.94;;;15.60;100.00
24788;BME280;12883;52.662;5.196;2023-03-18T12:54:42;101051.00;;;15.58;100.00
24788;BME280;12883;52.662;5.196;2023-03-18T12:57:15;101042.88;;;15.65;100.00
24788;BME280;12883;52.662;5.196;2023-03-18T12:59:47;101043.72;;;15.65;100.00
24788;BME280;12883;52.662;5.196;2023-03-18T13:04:53;101050.63;;;15.73;100.00
24788;BME280;12883;52.662;5.196;2023-03-18T13:07:24;101052.31;;;15.67;100.00
24788;BME280;12883;52.662;5.196;2023-03-18T13:10:21;101046.16;;;15.67;100.00
24788;BME280;12883;52.662;5.196;2023-03-18T13:12:50;101048.34;;;15.58;100.00
24788;BME280;12883;52.662;5.196;2023-03-18T13:15:27;101051.28;;;15.68;100.00
24788;BME280;12883;52.662;5.196;2023-03-18T13:17:56;101050.84;;;15.71;100.00
24788;BME280;12883;52.662;5.196;2023-03-18T13:20:28;101039.56;;;15.69;100.00
24788;BME280;12883;52.662;5.196;2023-03-18T13:26:16;101045.03;;;15.74;100.00
24788;BME280;12883;52.662;5.196;2023-03-18T13:29:32;101043.38;;;15.73;100.00
24788;BME280;12883;52.662;5.196;2023-03-18T13:37:22;101037.28;;;15.84;100.00
24788;BME280;12883;52.662;5.196;2023-03-18T13:39:56;101043.31;;;15.80;100.00
24788;BME280;12883;52.662;5.196;2023-03-18T13:42:30;101043.97;;;15.75;100.00
24788;BME280;12883;52.662;5.196;2023-03-18T13:47:40;101049.78;;;15.72;100.00
24788;BME280;12883;52.662;5.196;2023-03-18T13:52:43;100989.44;;;15.29;100.00
24788;BME280;12883;52.662;5.196;2023-03-18T13:55:32;101046.38;;;15.65;100.00
24788;BME280;12883;52.662;5.196;2023-03-18T14:00:38;101052.63;;;15.59;100.00
24788;BME280;12883;52.662;5.196;2023-03-18T14:13:52;101042.63;;;15.37;100.00
24788;BME280;12883;52.662;5.196;2023-03-18T14:16:22;101044.13;;;15.33;100.00
24788;BME280;12883;52.662;5.196;2023-03-18T14:18:56;101040.91;;;15.24;100.00
24788;BME280;12883;52.662;5.196;2023-03-18T14:21:27;101025.75;;;15.18;100.00
24788;BME280;12883;52.662;5.196;2023-03-18T14:24:22;101036.41;;;15.25;100.00